sensor_id;sensor_type;location;lat;lon;timestamp;pressure;altitude;pressure_sealevel;temperature;humidity
65832;BME280;52593;42.648;23.332;2022-08-26T00:00:51;94250.81;;;19.74;71.15
65832;BME280;52593;42.648;23.332;2022-08-26T00:03:17;94251.66;;;19.74;71.60
65832;BME280;52593;42.648;23.332;2022-08-26T00:05:44;94243.03;;;19.60;71.77
65832;BME280;52593;42.648;23.332;2022-08-26T00:08:11;94242.66;;;19.57;71.70
65832;BME280;52593;42.648;23.332;2022-08-26T00:10:37;94246.72;;;19.54;71.67
65832;BME280;52593;42.648;23.332;2022-08-26T00:13:04;94235.75;;;19.49;71.99
65832;BME280;52593;42.648;23.332;2022-08-26T00:15:30;94233.97;;;19.55;71.66
65832;BME280;52593;42.648;23.332;2022-08-26T00:17:56;94241.84;;;19.56;71.09
65832;BME280;52593;42.648;23.332;2022-08-26T00:20:25;94234.94;;;19.49;70.74
65832;BME280;52593;42.648;23.332;2022-08-26T00:22:50;94241.13;;;19.44;70.94
65832;BME280;52593;42.648;23.332;2022-08-26T00:25:16;94240.19;;;19.38;71.53
65832;BME280;52593;42.648;23.332;2022-08-26T00:27:42;94239.72;;;19.41;71.52
65832;BME280;52593;42.648;23.332;2022-08-26T00:30:12;94240.44;;;19.37;71.25
65832;BME280;52593;42.648;23.332;2022-08-26T00:32:39;94231.75;;;19.35;70.76
65832;BME280;52593;42.648;23.332;2022-08-26T00:35:05;94236.00;;;19.31;70.93
65832;BME280;52593;42.648;23.332;2022-08-26T00:37:31;94226.81;;;19.32;71.36
65832;BME280;52593;42.648;23.332;2022-08-26T00:39:57;94226.50;;;19.28;70.62
65832;BME280;52593;42.648;23.332;2022-08-26T00:42:22;94222.63;;;19.24;70.02
65832;BME280;52593;42.648;23.332;2022-08-26T00:44:48;94218.59;;;19.27;70.28
65832;BME280;52593;42.648;23.332;2022-08-26T00:50:31;94231.66;;;19.30;72.05
65832;BME280;52593;42.648;23.332;2022-08-26T00:52:59;94228.97;;;19.30;71.86
65832;BME280;52593;42.648;23.332;2022-08-26T00:55:35;94228.78;;;19.36;71.73
65832;BME280;52593;42.648;23.332;2022-08-26T00:58:03;94224.41;;;19.35;67.94
65832;BME280;52593;42.648;23.332;2022-08-26T01:00:30;94229.03;;;19.35;68.48
65832;BME280;52593;42.648;23.332;2022-08-26T01:02:58;94235.75;;;19.49;68.14
65832;BME280;52593;42.648;23.332;2022-08-26T01:05:24;94236.69;;;19.38;68.91
65832;BME280;52593;42.648;23.332;2022-08-26T01:07:50;94228.84;;;19.41;69.59
65832;BME280;52593;42.648;23.332;2022-08-26T01:10:19;94214.56;;;19.29;66.97
65832;BME280;52593;42.648;23.332;2022-08-26T01:12:47;94215.97;;;19.32;67.23
65832;BME280;52593;42.648;23.332;2022-08-26T01:15:24;94215.22;;;19.53;68.21
65832;BME280;52593;42.648;23.332;2022-08-26T01:17:50;94221.06;;;19.62;67.76
65832;BME280;52593;42.648;23.332;2022-08-26T01:23:04;94212.91;;;19.62;66.60
65832;BME280;52593;42.648;23.332;2022-08-26T01:25:31;94215.75;;;19.72;67.60
65832;BME280;52593;42.648;23.332;2022-08-26T01:28:01;94214.88;;;19.67;67.61
65832;BME280;52593;42.648;23.332;2022-08-26T01:30:28;94215.88;;;19.60;68.74
65832;BME280;52593;42.648;23.332;2022-08-26T01:32:57;94210.59;;;19.54;68.53
65832;BME280;52593;42.648;23.332;2022-08-26T01:35:24;94212.56;;;19.58;69.11
65832;BME280;52593;42.648;23.332;2022-08-26T01:37:52;94220.41;;;19.55;68.98
65832;BME280;52593;42.648;23.332;2022-08-26T01:40:23;94216.53;;;19.51;69.35
65832;BME280;52593;42.648;23.332;2022-08-26T01:42:51;94218.00;;;19.75;68.77
65832;BME280;52593;42.648;23.332;2022-08-26T01:45:19;94216.50;;;19.68;69.38
65832;BME280;52593;42.648;23.332;2022-08-26T01:47:47;94214.47;;;19.58;69.76
65832;BME280;52593;42.648;23.332;2022-08-26T01:50:20;94211.94;;;19.51;70.31
65832;BME280;52593;42.648;23.332;2022-08-26T01:52:48;94212.81;;;19.40;70.78
65832;BME280;52593;42.648;23.332;2022-08-26T01:55:16;94215.38;;;19.64;69.86
65832;BME280;52593;42.648;23.332;2022-08-26T01:57:43;94215.88;;;19.60;70.04
65832;BME280;52593;42.648;23.332;2022-08-26T02:00:11;94212.34;;;19.43;70.97
65832;BME280;52593;42.648;23.332;2022-08-26T02:02:41;94212.69;;;19.47;71.08
65832;BME280;52593;42.648;23.332;2022-08-26T02:05:11;94213.78;;;19.68;70.04
65832;BME280;52593;42.648;23.332;2022-08-26T02:07:38;94217.69;;;19.38;71.76
65832;BME280;52593;42.648;23.332;2022-08-26T02:10:04;94218.44;;;19.33;72.12
65832;BME280;52593;42.648;23.332;2022-08-26T02:12:31;94223.28;;;19.31;72.77
65832;BME280;52593;42.648;23.332;2022-08-26T02:14:58;94225.75;;;19.33;72.06
65832;BME280;52593;42.648;23.332;2022-08-26T02:17:32;94217.13;;;19.36;72.25
65832;BME280;52593;42.648;23.332;2022-08-26T02:19:59;94221.31;;;19.43;71.47
65832;BME280;52593;42.648;23.332;2022-08-26T02:22:24;94219.97;;;19.29;72.52
65832;BME280;52593;42.648;23.332;2022-08-26T02:24:53;94221.56;;;19.25;72.14
65832;BME280;52593;42.648;23.332;2022-08-26T02:27:27;94210.59;;;19.37;72.49
65832;BME280;52593;42.648;23.332;2022-08-26T02:29:57;94206.16;;;19.31;72.98
65832;BME280;52593;42.648;23.332;2022-08-26T02:32:25;94208.13;;;19.18;72.49
65832;BME280;52593;42.648;23.332;2022-08-26T02:34:50;94205.91;;;19.15;72.47
65832;BME280;52593;42.648;23.332;2022-08-26T02:37:15;94212.00;;;19.05;73.57
65832;BME280;52593;42.648;23.332;2022-08-26T02:39:42;94215.94;;;18.98;74.21
65832;BME280;52593;42.648;23.332;2022-08-26T02:42:08;94213.31;;;19.03;74.35
65832;BME280;52593;42.648;23.332;2022-08-26T02:44:35;94211.88;;;19.00;74.58
65832;BME280;52593;42.648;23.332;2022-08-26T02:47:00;94210.03;;;19.01;74.15
65832;BME280;52593;42.648;23.332;2022-08-26T02:49:26;94210.16;;;18.94;73.23
65832;BME280;52593;42.648;23.332;2022-08-26T02:51:55;94210.22;;;19.28;72.03
65832;BME280;52593;42.648;23.332;2022-08-26T02:54:21;94213.72;;;19.12;73.83
65832;BME280;52593;42.648;23.332;2022-08-26T02:56:47;94213.81;;;19.17;74.14
65832;BME280;52593;42.648;23.332;2022-08-26T02:59:12;94220.06;;;19.17;74.01
65832;BME280;52593;42.648;23.332;2022-08-26T03:01:38;94223.53;;;19.13;74.55
65832;BME280;52593;42.648;23.332;2022-08-26T03:04:06;94221.06;;;19.11;74.96
65832;BME280;52593;42.648;23.332;2022-08-26T03:06:32;94222.13;;;19.10;71.96
65832;BME280;52593;42.648;23.332;2022-08-26T03:08:57;94219.16;;;19.12;70.41
65832;BME280;52593;42.648;23.332;2022-08-26T03:11:24;94218.91;;;19.13;71.10
65832;BME280;52593;42.648;23.332;2022-08-26T03:13:50;94217.13;;;19.19;68.66
65832;BME280;52593;42.648;23.332;2022-08-26T03:16:16;94206.66;;;19.45;67.17
65832;BME280;52593;42.648;23.332;2022-08-26T03:18:41;94209.72;;;19.48;67.68
65832;BME280;52593;42.648;23.332;2022-08-26T03:21:09;94210.53;;;19.49;67.88
65832;BME280;52593;42.648;23.332;2022-08-26T03:23:36;94211.84;;;19.46;68.63
65832;BME280;52593;42.648;23.332;2022-08-26T03:26:03;94210.53;;;19.49;70.54
65832;BME280;52593;42.648;23.332;2022-08-26T03:28:28;94225.50;;;19.51;70.76
65832;BME280;52593;42.648;23.332;2022-08-26T03:30:55;94221.69;;;19.52;70.96
65832;BME280;52593;42.648;23.332;2022-08-26T03:33:21;94227.38;;;19.51;70.93
65832;BME280;52593;42.648;23.332;2022-08-26T03:35:47;94219.91;;;19.41;68.37
65832;BME280;52593;42.648;23.332;2022-08-26T03:38:13;94217.38;;;19.34;67.29
65832;BME280;52593;42.648;23.332;2022-08-26T03:40:40;94217.63;;;19.33;67.12
65832;BME280;52593;42.648;23.332;2022-08-26T03:43:07;94212.19;;;19.33;66.90
65832;BME280;52593;42.648;23.332;2022-08-26T03:45:32;94205.53;;;19.40;66.74
65832;BME280;52593;42.648;23.332;2022-08-26T03:47:59;94211.69;;;19.36;66.85
65832;BME280;52593;42.648;23.332;2022-08-26T03:50:24;94219.97;;;19.46;67.80
65832;BME280;52593;42.648;23.332;2022-08-26T03:52:51;94211.03;;;19.46;67.93
65832;BME280;52593;42.648;23.332;2022-08-26T03:55:19;94206.16;;;19.48;67.68
65832;BME280;52593;42.648;23.332;2022-08-26T03:57:45;94217.88;;;19.48;68.12
65832;BME280;52593;42.648;23.332;2022-08-26T04:00:13;94214.63;;;19.68;68.89
65832;BME280;52593;42.648;23.332;2022-08-26T04:02:41;94204.59;;;19.52;67.60
65832;BME280;52593;42.648;23.332;2022-08-26T04:05:08;94212.81;;;19.57;67.51
65832;BME280;52593;42.648;23.332;2022-08-26T04:07:34;94207.25;;;19.64;66.53
65832;BME280;52593;42.648;23.332;2022-08-26T04:10:01;94205.09;;;19.49;66.35
65832;BME280;52593;42.648;23.332;2022-08-26T04:12:26;94211.69;;;19.53;66.94
65832;BME280;52593;42.648;23.332;2022-08-26T04:14:52;94206.59;;;19.56;67.54
65832;BME280;52593;42.648;23.332;2022-08-26T04:17:18;94207.63;;;19.55;66.86
65832;BME280;52593;42.648;23.332;2022-08-26T04:19:43;94210.84;;;19.52;66.70
65832;BME280;52593;42.648;23.332;2022-08-26T04:22:09;94201.66;;;19.53;66.15
65832;BME280;52593;42.648;23.332;2022-08-26T04:24:35;94215.53;;;19.57;66.20
65832;BME280;52593;42.648;23.332;2022-08-26T04:27:03;94202.81;;;19.57;65.83
65832;BME280;52593;42.648;23.332;2022-08-26T04:29:28;94204.44;;;19.58;65.83
65832;BME280;52593;42.648;23.332;2022-08-26T04:31:54;94207.50;;;19.62;65.54
65832;BME280;52593;42.648;23.332;2022-08-26T04:34:24;94207.75;;;19.60;66.43
65832;BME280;52593;42.648;23.332;2022-08-26T04:36:50;94210.75;;;19.64;65.94
65832;BME280;52593;42.648;23.332;2022-08-26T04:39:16;94211.34;;;19.66;66.15
65832;BME280;52593;42.648;23.332;2022-08-26T04:41:43;94202.78;;;19.74;66.09
65832;BME280;52593;42.648;23.332;2022-08-26T04:44:09;94210.88;;;19.86;65.40
65832;BME280;52593;42.648;23.332;2022-08-26T04:46:35;94208.47;;;19.73;66.40
65832;BME280;52593;42.648;23.332;2022-08-26T04:49:02;94213.19;;;19.77;66.21
65832;BME280;52593;42.648;23.332;2022-08-26T04:51:28;94215.47;;;19.86;65.04
65832;BME280;52593;42.648;23.332;2022-08-26T04:53:55;94208.97;;;19.87;65.35
65832;BME280;52593;42.648;23.332;2022-08-26T04:56:22;94216.34;;;19.91;64.84
65832;BME280;52593;42.648;23.332;2022-08-26T04:58:47;94213.50;;;19.81;65.62
65832;BME280;52593;42.648;23.332;2022-08-26T05:01:13;94207.75;;;19.77;66.24
65832;BME280;52593;42.648;23.332;2022-08-26T05:03:39;94213.75;;;19.80;66.13
65832;BME280;52593;42.648;23.332;2022-08-26T05:06:04;94212.59;;;19.92;66.10
65832;BME280;52593;42.648;23.332;2022-08-26T05:08:30;94217.81;;;19.99;65.15
65832;BME280;52593;42.648;23.332;2022-08-26T05:10:56;94211.69;;;20.09;64.84
65832;BME280;52593;42.648;23.332;2022-08-26T05:13:24;94215.13;;;20.21;65.19
65832;BME280;52593;42.648;23.332;2022-08-26T05:15:50;94217.72;;;20.11;65.24
65832;BME280;52593;42.648;23.332;2022-08-26T05:18:18;94213.91;;;20.12;66.05
65832;BME280;52593;42.648;23.332;2022-08-26T05:20:48;94216.00;;;20.05;65.66
65832;BME280;52593;42.648;23.332;2022-08-26T05:23:14;94218.22;;;20.08;66.84
65832;BME280;52593;42.648;23.332;2022-08-26T05:25:42;94221.31;;;20.17;68.19
65832;BME280;52593;42.648;23.332;2022-08-26T05:28:10;94224.41;;;20.25;66.36
65832;BME280;52593;42.648;23.332;2022-08-26T05:30:36;94231.00;;;20.29;66.28
65832;BME280;52593;42.648;23.332;2022-08-26T05:33:03;94226.31;;;20.47;64.55
65832;BME280;52593;42.648;23.332;2022-08-26T05:35:29;94226.41;;;20.52;64.84
65832;BME280;52593;42.648;23.332;2022-08-26T05:37:59;94229.72;;;20.59;65.19
65832;BME280;52593;42.648;23.332;2022-08-26T05:40:25;94225.69;;;20.62;63.61
65832;BME280;52593;42.648;23.332;2022-08-26T05:42:51;94231.88;;;20.57;64.08
65832;BME280;52593;42.648;23.332;2022-08-26T05:45:17;94230.94;;;20.69;62.53
65832;BME280;52593;42.648;23.332;2022-08-26T05:47:43;94237.28;;;20.74;63.32
65832;BME280;52593;42.648;23.332;2022-08-26T05:50:08;94234.34;;;20.81;62.74
65832;BME280;52593;42.648;23.332;2022-08-26T05:52:34;94238.34;;;20.73;64.32
65832;BME280;52593;42.648;23.332;2022-08-26T05:54:59;94231.53;;;20.71;64.80
65832;BME280;52593;42.648;23.332;2022-08-26T05:57:27;94231.63;;;20.81;64.77
65832;BME280;52593;42.648;23.332;2022-08-26T05:59:53;94231.09;;;20.84;64.93
65832;BME280;52593;42.648;23.332;2022-08-26T06:02:18;94228.38;;;20.84;64.12
65832;BME280;52593;42.648;23.332;2022-08-26T06:04:43;94240.91;;;20.85;64.72
65832;BME280;52593;42.648;23.332;2022-08-26T06:07:09;94245.09;;;20.93;66.31
65832;BME280;52593;42.648;23.332;2022-08-26T06:09:37;94244.69;;;21.06;62.24
65832;BME280;52593;42.648;23.332;2022-08-26T06:12:03;94240.94;;;21.12;63.11
65832;BME280;52593;42.648;23.332;2022-08-26T06:14:29;94244.34;;;21.02;62.54
65832;BME280;52593;42.648;23.332;2022-08-26T06:16:55;94242.06;;;20.89;62.90
65832;BME280;52593;42.648;23.332;2022-08-26T06:19:20;94240.97;;;20.90;63.70
65832;BME280;52593;42.648;23.332;2022-08-26T06:21:48;94247.88;;;20.76;63.41
65832;BME280;52593;42.648;23.332;2022-08-26T06:24:14;94247.50;;;20.67;64.43
65832;BME280;52593;42.648;23.332;2022-08-26T06:27:01;94242.84;;;20.84;64.62
65832;BME280;52593;42.648;23.332;2022-08-26T06:29:32;94252.25;;;21.04;64.09
65832;BME280;52593;42.648;23.332;2022-08-26T06:31:59;94249.09;;;21.12;63.78
65832;BME280;52593;42.648;23.332;2022-08-26T06:34:26;94250.03;;;21.23;62.04
65832;BME280;52593;42.648;23.332;2022-08-26T06:36:55;94250.91;;;21.29;61.63
65832;BME280;52593;42.648;23.332;2022-08-26T06:39:22;94251.41;;;21.26;62.18
65832;BME280;52593;42.648;23.332;2022-08-26T06:41:48;94257.78;;;21.36;63.63
65832;BME280;52593;42.648;23.332;2022-08-26T06:44:15;94253.50;;;21.46;62.70
65832;BME280;52593;42.648;23.332;2022-08-26T06:46:41;94262.59;;;21.57;62.44
65832;BME280;52593;42.648;23.332;2022-08-26T06:49:07;94255.78;;;21.59;62.92
65832;BME280;52593;42.648;23.332;2022-08-26T06:51:35;94263.25;;;21.69;61.42
65832;BME280;52593;42.648;23.332;2022-08-26T06:54:01;94257.03;;;21.73;61.94
65832;BME280;52593;42.648;23.332;2022-08-26T06:56:33;94259.34;;;21.97;61.30
65832;BME280;52593;42.648;23.332;2022-08-26T06:58:58;94254.50;;;22.04;59.22
65832;BME280;52593;42.648;23.332;2022-08-26T07:01:36;94258.03;;;22.05;59.36
65832;BME280;52593;42.648;23.332;2022-08-26T07:04:03;94260.47;;;22.01;59.43
65832;BME280;52593;42.648;23.332;2022-08-26T07:06:30;94257.78;;;22.06;60.01
65832;BME280;52593;42.648;23.332;2022-08-26T07:09:02;94259.97;;;22.04;59.07
65832;BME280;52593;42.648;23.332;2022-08-26T07:11:29;94256.72;;;22.07;59.67
65832;BME280;52593;42.648;23.332;2022-08-26T07:13:54;94254.50;;;21.99;59.15
65832;BME280;52593;42.648;23.332;2022-08-26T07:16:20;94258.53;;;21.97;59.68
65832;BME280;52593;42.648;23.332;2022-08-26T07:18:46;94256.34;;;21.94;57.86
65832;BME280;52593;42.648;23.332;2022-08-26T07:21:14;94256.88;;;21.90;57.56
65832;BME280;52593;42.648;23.332;2022-08-26T07:23:40;94256.34;;;21.94;57.32
65832;BME280;52593;42.648;23.332;2022-08-26T07:26:08;94256.91;;;21.96;60.59
65832;BME280;52593;42.648;23.332;2022-08-26T07:28:33;94257.56;;;22.13;56.66
65832;BME280;52593;42.648;23.332;2022-08-26T07:31:09;94258.72;;;22.22;57.91
65832;BME280;52593;42.648;23.332;2022-08-26T07:33:36;94266.91;;;22.27;56.98
65832;BME280;52593;42.648;23.332;2022-08-26T07:36:03;94257.25;;;22.47;56.85
65832;BME280;52593;42.648;23.332;2022-08-26T07:38:29;94254.00;;;22.55;56.15
65832;BME280;52593;42.648;23.332;2022-08-26T07:40:54;94257.53;;;22.51;57.14
65832;BME280;52593;42.648;23.332;2022-08-26T07:43:20;94253.53;;;22.69;57.76
65832;BME280;52593;42.648;23.332;2022-08-26T07:45:45;94257.69;;;22.87;56.92
65832;BME280;52593;42.648;23.332;2022-08-26T07:48:11;94262.81;;;22.78;55.84
65832;BME280;52593;42.648;23.332;2022-08-26T07:50:36;94260.09;;;22.78;55.39
65832;BME280;52593;42.648;23.332;2022-08-26T07:53:03;94257.38;;;22.83;54.94
65832;BME280;52593;42.648;23.332;2022-08-26T07:55:29;94259.88;;;23.00;53.14
65832;BME280;52593;42.648;23.332;2022-08-26T07:57:55;94266.19;;;23.01;53.53
65832;BME280;52593;42.648;23.332;2022-08-26T08:00:21;94264.56;;;23.05;54.16
65832;BME280;52593;42.648;23.332;2022-08-26T08:02:46;94263.53;;;23.21;55.20
65832;BME280;52593;42.648;23.332;2022-08-26T08:05:14;94266.78;;;23.18;53.97
65832;BME280;52593;42.648;23.332;2022-08-26T08:07:41;94262.19;;;23.34;54.17
65832;BME280;52593;42.648;23.332;2022-08-26T08:10:11;94265.50;;;23.51;53.06
65832;BME280;52593;42.648;23.332;2022-08-26T08:12:38;94261.97;;;23.77;53.21
65832;BME280;52593;42.648;23.332;2022-08-26T08:15:05;94255.94;;;23.80;53.09
65832;BME280;52593;42.648;23.332;2022-08-26T08:17:31;94256.78;;;23.96;50.86
65832;BME280;52593;42.648;23.332;2022-08-26T08:19:58;94257.56;;;23.81;51.55
65832;BME280;52593;42.648;23.332;2022-08-26T08:22:24;94260.03;;;23.67;51.97
65832;BME280;52593;42.648;23.332;2022-08-26T08:24:49;94264.66;;;23.61;51.96
65832;BME280;52593;42.648;23.332;2022-08-26T08:27:14;94257.00;;;23.58;51.26
65832;BME280;52593;42.648;23.332;2022-08-26T08:29:40;94261.41;;;23.80;51.18
65832;BME280;52593;42.648;23.332;2022-08-26T08:32:05;94259.50;;;23.85;50.15
65832;BME280;52593;42.648;23.332;2022-08-26T08:34:31;94258.69;;;23.85;50.35
65832;BME280;52593;42.648;23.332;2022-08-26T08:36:57;94252.94;;;23.92;50.66
65832;BME280;52593;42.648;23.332;2022-08-26T08:39:22;94251.28;;;24.11;50.31
65832;BME280;52593;42.648;23.332;2022-08-26T08:44:22;94243.66;;;23.98;49.67
65832;BME280;52593;42.648;23.332;2022-08-26T08:46:53;94238.22;;;23.93;50.24
65832;BME280;52593;42.648;23.332;2022-08-26T08:49:20;94243.38;;;23.74;50.51
65832;BME280;52593;42.648;23.332;2022-08-26T08:51:51;94243.94;;;23.71;50.12
65832;BME280;52593;42.648;23.332;2022-08-26T08:54:19;94243.38;;;23.79;50.37
65832;BME280;52593;42.648;23.332;2022-08-26T08:57:11;94234.38;;;23.94;49.93
65832;BME280;52593;42.648;23.332;2022-08-26T08:59:57;94234.09;;;23.80;48.35
65832;BME280;52593;42.648;23.332;2022-08-26T09:02:32;94234.09;;;23.80;47.32
65832;BME280;52593;42.648;23.332;2022-08-26T09:07:37;94230.28;;;23.96;46.10
65832;BME280;52593;42.648;23.332;2022-08-26T09:12:42;94231.09;;;23.97;43.83
65832;BME280;52593;42.648;23.332;2022-08-26T09:15:17;94230.00;;;24.03;45.83
65832;BME280;52593;42.648;23.332;2022-08-26T09:22:42;94228.81;;;24.35;44.26
